createdAt,value
2023-04-18T00:00:59.882Z,7.80
2023-04-18T00:03:29.865Z,7.60
2023-04-18T00:05:59.345Z,7.70
2023-04-18T00:08:28.346Z,7.60
2023-04-18T00:10:56.263Z,7.60
2023-04-18T00:13:24.176Z,8.00
2023-04-18T00:15:54.061Z,9.50
2023-04-18T00:18:26.501Z,7.60
2023-04-18T00:20:54.495Z,7.70
2023-04-18T00:23:22.448Z,7.80
2023-04-18T00:25:50.315Z,7.50
2023-04-18T00:28:18.182Z,7.50
2023-04-18T00:30:46.496Z,7.40
2023-04-18T00:33:14.380Z,8.90
2023-04-18T00:35:43.735Z,7.40
2023-04-18T00:38:11.707Z,9.00
2023-04-18T00:40:39.740Z,7.40
2023-04-18T00:43:08.762Z,8.80
2023-04-18T00:45:37.012Z,7.40
2023-04-18T00:48:05.245Z,8.00
2023-04-18T00:50:33.166Z,7.30
2023-04-18T00:53:02.456Z,7.30
2023-04-18T00:55:30.990Z,7.30
2023-04-18T00:57:58.897Z,8.80
2023-04-18T01:00:27.254Z,7.20
2023-04-18T01:02:55.843Z,7.40
2023-04-18T01:05:24.440Z,7.30
2023-04-18T01:07:52.673Z,8.20
2023-04-18T01:10:22.089Z,7.70
2023-04-18T01:12:49.929Z,7.20
2023-04-18T01:15:17.807Z,7.10
2023-04-18T01:17:46.292Z,7.10
2023-04-18T01:20:16.772Z,7.10
2023-04-18T01:22:44.632Z,7.60
2023-04-18T01:25:14.355Z,7.90
2023-04-18T01:27:42.285Z,6.10
2023-04-18T01:30:11.578Z,8.50
2023-04-18T01:32:39.452Z,7.00
2023-04-18T01:35:08.136Z,7.00
2023-04-18T01:37:36.045Z,7.00
2023-04-18T01:40:03.959Z,7.50
2023-04-18T01:42:33.157Z,8.20
2023-04-18T01:45:01.091Z,7.40
2023-04-18T01:47:29.039Z,6.80
2023-04-18T01:49:57.103Z,6.80
2023-04-18T01:52:25.056Z,6.80
2023-04-18T01:54:52.916Z,8.30
2023-04-18T01:57:20.817Z,6.70
2023-04-18T01:59:50.050Z,6.80
2023-04-18T02:02:18.035Z,6.80
2023-04-18T02:04:45.999Z,6.70
2023-04-18T02:07:13.860Z,6.90
2023-04-18T02:09:41.693Z,7.70
2023-04-18T02:12:10.084Z,7.90
2023-04-18T02:14:38.088Z,6.60
2023-04-18T02:17:07.393Z,6.60
2023-04-18T02:19:35.557Z,6.60
2023-04-18T02:22:03.431Z,6.50
2023-04-18T02:24:31.286Z,7.00
2023-04-18T02:26:59.158Z,7.00
2023-04-18T02:29:27.819Z,6.50
2023-04-18T02:31:55.712Z,6.50
2023-04-18T02:34:25.008Z,6.50
2023-04-18T02:36:52.902Z,7.80
2023-04-18T02:39:21.721Z,8.20
2023-04-18T02:41:49.567Z,8.00
2023-04-18T02:44:17.483Z,7.30
2023-04-18T02:46:45.353Z,6.40
2023-04-18T02:49:13.227Z,7.80
2023-04-18T02:51:42.527Z,6.40
2023-04-18T02:54:10.420Z,7.70
2023-04-18T02:56:40.040Z,6.90
2023-04-18T02:59:08.129Z,7.00
2023-04-18T03:01:36.066Z,6.40
2023-04-18T03:04:04.010Z,8.10
2023-04-18T03:06:32.222Z,7.60
2023-04-18T03:09:01.504Z,8.50
2023-04-18T03:11:29.351Z,6.40
2023-04-18T03:13:57.194Z,6.30
2023-04-18T03:16:25.179Z,7.70
2023-04-18T03:18:53.133Z,7.50
2023-04-18T03:21:21.002Z,6.70
2023-04-18T03:23:48.853Z,6.30
2023-04-18T03:26:18.152Z,8.50
2023-04-18T03:28:46.146Z,7.90
2023-04-18T03:31:14.054Z,8.30
2023-04-18T03:33:42.322Z,6.20
2023-04-18T03:36:10.567Z,6.20
2023-04-18T03:38:40.600Z,6.20
2023-04-18T03:41:08.541Z,7.40
2023-04-18T03:43:37.778Z,6.10
2023-04-18T03:46:06.053Z,7.20
2023-04-18T03:48:37.090Z,6.10
2023-04-18T03:51:06.562Z,7.90
2023-04-18T03:53:34.424Z,6.10
2023-04-18T03:56:02.300Z,6.90
2023-04-18T03:58:30.164Z,7.30
2023-04-18T04:01:00.991Z,6.00
2023-04-18T04:03:28.958Z,6.00
2023-04-18T04:05:57.540Z,6.70
2023-04-18T04:08:27.677Z,6.00
2023-04-18T04:10:56.107Z,5.90
2023-04-18T04:13:23.983Z,6.80
2023-04-18T04:15:52.666Z,5.90
2023-04-18T04:18:25.385Z,7.40
2023-04-18T04:20:53.306Z,7.00
2023-04-18T04:23:22.616Z,6.30
2023-04-18T04:25:50.542Z,6.40
2023-04-18T04:28:18.412Z,5.80
2023-04-18T04:30:46.268Z,6.80
2023-04-18T04:33:14.250Z,7.30
2023-04-18T04:35:44.205Z,7.90
2023-04-18T04:38:12.438Z,7.40
2023-04-18T04:40:40.312Z,6.60
2023-04-18T04:43:12.634Z,7.60
2023-04-18T04:45:41.469Z,7.30
2023-04-18T04:48:09.936Z,7.70
2023-04-18T04:50:42.811Z,5.80
2023-04-18T04:53:12.210Z,5.70
2023-04-18T04:55:40.428Z,5.80
2023-04-18T04:58:08.330Z,5.80
2023-04-18T05:00:36.235Z,7.10
2023-04-18T05:03:04.610Z,6.90
2023-04-18T05:05:32.550Z,6.30
2023-04-18T05:08:00.459Z,5.90
2023-04-18T05:10:30.237Z,5.90
2023-04-18T05:12:58.265Z,5.80
2023-04-18T05:15:26.194Z,6.40
2023-04-18T05:17:54.130Z,5.90
2023-04-18T05:20:22.145Z,8.10
2023-04-18T05:22:52.349Z,6.00
2023-04-18T05:25:20.353Z,4.90
2023-04-18T05:27:49.577Z,6.40
2023-04-18T05:30:17.696Z,6.00
2023-04-18T05:32:45.806Z,6.40
2023-04-18T05:35:13.809Z,6.00
2023-04-18T05:37:41.756Z,7.80
2023-04-18T05:40:10.802Z,6.30
2023-04-18T05:42:38.696Z,6.10
2023-04-18T05:45:09.301Z,7.90
2023-04-18T05:47:37.208Z,6.20
2023-04-18T05:50:05.844Z,7.70
2023-04-18T05:52:34.036Z,6.20
2023-04-18T05:55:01.898Z,6.20
2023-04-18T05:57:29.796Z,6.20
2023-04-18T05:59:57.741Z,6.20
2023-04-18T06:02:27.080Z,6.80
2023-04-18T06:04:56.662Z,6.20
2023-04-18T06:07:25.343Z,6.30
2023-04-18T06:09:53.979Z,7.10
2023-04-18T06:12:21.966Z,6.20
2023-04-18T06:14:51.962Z,6.30
2023-04-18T06:17:21.322Z,7.90
2023-04-18T06:19:50.627Z,6.40
2023-04-18T06:22:18.547Z,6.40
2023-04-18T06:24:47.495Z,6.40
2023-04-18T06:27:27.974Z,7.50
2023-04-18T06:29:58.976Z,8.10
2023-04-18T06:32:27.052Z,8.00
2023-04-18T06:34:56.341Z,7.80
2023-04-18T06:37:24.928Z,6.60
2023-04-18T06:39:52.822Z,6.60
2023-04-18T06:42:22.403Z,8.30
2023-04-18T06:44:50.737Z,8.30
2023-04-18T06:47:18.691Z,6.60
2023-04-18T06:49:46.551Z,8.20
2023-04-18T06:52:15.772Z,6.90
2023-04-18T06:54:43.681Z,7.00
2023-04-18T06:57:11.612Z,7.00
2023-04-18T06:59:41.269Z,8.50
2023-04-18T07:02:09.437Z,7.10
2023-04-18T07:04:37.522Z,7.10
2023-04-18T07:07:05.786Z,7.60
2023-04-18T07:09:35.057Z,7.50
2023-04-18T07:12:03.023Z,7.20
2023-04-18T07:14:32.816Z,7.60
2023-04-18T07:17:01.604Z,8.20
2023-04-18T07:19:29.696Z,7.60
2023-04-18T07:21:57.737Z,8.70
2023-04-18T07:24:25.777Z,7.80
2023-04-18T07:26:55.324Z,7.90
2023-04-18T07:29:23.294Z,8.00
2023-04-18T07:31:51.239Z,8.00
2023-04-18T07:34:19.310Z,7.90
2023-04-18T07:36:47.175Z,7.90
2023-04-18T07:39:15.143Z,7.90
2023-04-18T07:41:43.050Z,8.00
2023-04-18T07:44:12.510Z,8.10
2023-04-18T07:46:40.858Z,9.60
2023-04-18T07:49:08.812Z,8.30
2023-04-18T07:51:36.675Z,8.30
2023-04-18T07:54:04.631Z,8.20
2023-04-18T07:56:32.495Z,8.20
2023-04-18T07:59:01.564Z,8.20
2023-04-18T08:01:30.961Z,8.30
2023-04-18T08:04:01.611Z,8.40
2023-04-18T08:06:30.090Z,10.40
2023-04-18T08:08:58.948Z,8.60
2023-04-18T08:11:26.942Z,8.60
2023-04-18T08:13:54.827Z,8.70
2023-04-18T08:16:22.817Z,8.80
2023-04-18T08:18:52.143Z,8.80
2023-04-18T08:21:20.138Z,9.00
2023-04-18T08:23:48.097Z,9.20
2023-04-18T08:26:15.967Z,9.20
2023-04-18T08:28:46.364Z,9.20
2023-04-18T08:31:15.173Z,9.30
2023-04-18T08:33:43.224Z,9.50
2023-04-18T08:36:13.081Z,9.80
2023-04-18T08:38:40.974Z,9.90
2023-04-18T08:41:10.322Z,9.90
2023-04-18T08:43:39.206Z,11.10
2023-04-18T08:46:07.936Z,10.30
2023-04-18T08:48:36.674Z,10.50
2023-04-18T08:51:05.543Z,10.60
2023-04-18T08:53:35.270Z,10.70
2023-04-18T08:56:05.343Z,10.70
2023-04-18T08:58:34.703Z,10.50
2023-04-18T09:01:02.828Z,10.70
2023-04-18T09:03:39.626Z,12.30
2023-04-18T09:06:09.355Z,10.70
2023-04-18T09:08:39.080Z,10.60
2023-04-18T09:11:26.236Z,10.50
2023-04-18T09:13:56.235Z,10.50
2023-04-18T09:16:24.737Z,10.60
2023-04-18T09:19:13.731Z,10.60
2023-04-18T09:21:44.317Z,10.70
2023-04-18T09:24:23.650Z,10.60
2023-04-18T09:26:53.960Z,10.70
2023-04-18T09:29:23.310Z,10.80
2023-04-18T09:31:55.957Z,10.80
2023-04-18T09:34:26.402Z,10.80
2023-04-18T09:37:11.151Z,12.20
2023-04-18T09:39:42.321Z,11.00
2023-04-18T09:42:11.014Z,11.20
2023-04-18T09:44:39.405Z,11.30
2023-04-18T09:47:08.455Z,11.40
2023-04-18T09:49:36.386Z,11.40
2023-04-18T09:52:07.386Z,11.40
2023-04-18T09:54:40.683Z,11.60
2023-04-18T09:57:12.878Z,11.80
2023-04-18T09:59:47.517Z,12.10
2023-04-18T10:02:20.894Z,12.60
2023-04-18T10:04:51.771Z,12.90
2023-04-18T10:07:19.834Z,12.90
2023-04-18T10:09:50.982Z,12.70
2023-04-18T10:12:19.227Z,12.70
2023-04-18T10:14:47.630Z,13.20
2023-04-18T10:17:15.935Z,12.60
2023-04-18T10:19:46.174Z,12.60
2023-04-18T10:22:14.252Z,13.30
2023-04-18T10:24:52.872Z,12.90
2023-04-18T10:27:57.678Z,13.80
2023-04-18T10:31:04.005Z,13.10
2023-04-18T10:33:34.835Z,13.70
2023-04-18T10:36:16.062Z,14.20
2023-04-18T10:38:49.607Z,14.40
2023-04-18T10:41:24.396Z,14.50
2023-04-18T10:44:22.185Z,16.00
2023-04-18T10:47:23.200Z,14.30
2023-04-18T10:49:58.985Z,14.10
2023-04-18T10:52:27.866Z,14.00
2023-04-18T10:55:06.855Z,13.90
2023-04-18T10:57:44.860Z,15.30
2023-04-18T11:00:15.067Z,14.30
2023-04-18T11:02:50.750Z,13.80
2023-04-18T11:05:24.013Z,13.80
2023-04-18T11:07:52.036Z,13.50
2023-04-18T11:10:21.569Z,13.30
2023-04-18T11:12:51.175Z,13.30
2023-04-18T11:15:21.995Z,14.10
2023-04-18T11:18:01.502Z,13.20
2023-04-18T11:20:30.185Z,13.20
2023-04-18T11:23:00.328Z,13.40
2023-04-18T11:25:30.223Z,14.50
2023-04-18T11:28:02.278Z,14.70
2023-04-18T11:30:39.639Z,14.30
2023-04-18T11:33:09.323Z,13.60
2023-04-18T11:35:41.297Z,13.60
2023-04-18T11:38:10.620Z,15.20
2023-04-18T11:40:38.653Z,14.40
2023-04-18T11:43:08.673Z,14.20
2023-04-18T11:45:36.669Z,14.20
2023-04-18T11:48:04.833Z,15.50
2023-04-18T11:50:36.917Z,14.30
2023-04-18T11:53:04.775Z,14.30
2023-04-18T11:55:32.962Z,14.30
2023-04-18T11:58:02.313Z,14.20
2023-04-18T12:00:35.822Z,14.30
2023-04-18T12:03:05.463Z,13.90
2023-04-18T12:05:35.119Z,14.00
2023-04-18T12:08:08.102Z,14.00
2023-04-18T12:10:36.823Z,14.20
2023-04-18T12:13:08.614Z,14.30
2023-04-18T12:15:40.032Z,14.50
2023-04-18T12:18:09.426Z,14.50
2023-04-18T12:20:39.054Z,15.30
2023-04-18T12:23:07.805Z,16.40
2023-04-18T12:25:36.340Z,14.60
2023-04-18T12:28:14.284Z,14.60
2023-04-18T12:30:43.858Z,15.00
2023-04-18T12:33:12.468Z,14.90
2023-04-18T12:35:40.479Z,14.00
2023-04-18T12:38:08.390Z,13.70
2023-04-18T12:40:36.275Z,13.90
2023-04-18T12:43:04.261Z,14.10
2023-04-18T12:45:32.476Z,14.40
2023-04-18T12:48:01.744Z,15.70
2023-04-18T12:50:29.670Z,15.00
2023-04-18T12:53:01.014Z,14.80
2023-04-18T12:55:29.384Z,15.00
2023-04-18T12:57:58.133Z,14.80
2023-04-18T13:00:27.943Z,14.90
2023-04-18T13:02:56.416Z,15.10
2023-04-18T13:05:29.883Z,15.90
2023-04-18T13:08:15.478Z,15.20
2023-04-18T13:10:46.100Z,15.50
2023-04-18T13:13:14.080Z,14.90
2023-04-18T13:15:42.492Z,16.10
2023-04-18T13:18:10.533Z,16.20
2023-04-18T13:20:39.879Z,16.80
2023-04-18T13:23:07.756Z,14.70
2023-04-18T13:25:35.634Z,14.80
2023-04-18T13:28:03.479Z,14.70
2023-04-18T13:30:31.901Z,14.60
2023-04-18T13:32:59.841Z,14.50
2023-04-18T13:35:27.750Z,14.90
2023-04-18T13:37:56.999Z,14.90
2023-04-18T13:40:25.126Z,15.00
2023-04-18T13:42:53.020Z,15.40
2023-04-18T13:45:21.641Z,15.10
2023-04-18T13:47:49.579Z,14.60
2023-04-18T13:50:17.586Z,14.60
2023-04-18T13:52:46.803Z,15.10
2023-04-18T13:55:17.920Z,14.60
2023-04-18T13:57:45.887Z,14.70
2023-04-18T14:00:15.228Z,14.60
2023-04-18T14:02:43.361Z,14.70
2023-04-18T14:05:11.494Z,14.70
2023-04-18T14:07:39.416Z,14.40
2023-04-18T14:10:08.322Z,14.60
2023-04-18T14:12:37.552Z,14.60
2023-04-18T14:15:06.316Z,14.80
2023-04-18T14:17:34.749Z,14.70
2023-04-18T14:20:02.937Z,14.80
2023-04-18T14:22:31.086Z,15.00
2023-04-18T14:24:59.082Z,14.80
2023-04-18T14:27:27.664Z,15.00
2023-04-18T14:29:57.005Z,14.90
2023-04-18T14:32:25.071Z,15.70
2023-04-18T14:34:53.356Z,14.80
2023-04-18T14:37:21.277Z,16.50
2023-04-18T14:39:49.224Z,14.70
2023-04-18T14:42:17.371Z,14.70
2023-04-18T14:44:45.266Z,16.10
2023-04-18T14:47:14.537Z,14.70
2023-04-18T14:49:42.478Z,14.60
2023-04-18T14:52:10.377Z,14.90
2023-04-18T14:54:38.270Z,14.60
2023-04-18T14:57:08.139Z,15.10
2023-04-18T14:59:36.169Z,15.10
2023-04-18T15:02:04.182Z,14.20
2023-04-18T15:04:33.740Z,14.30
2023-04-18T15:07:01.819Z,14.80
2023-04-18T15:09:30.402Z,14.20
2023-04-18T15:12:00.033Z,15.50
2023-04-18T15:14:27.916Z,15.70
2023-04-18T15:16:55.932Z,15.50
2023-04-18T15:19:23.870Z,14.20
2023-04-18T15:21:53.103Z,15.10
2023-04-18T15:24:20.977Z,15.40
2023-04-18T15:26:48.941Z,14.10
2023-04-18T15:29:16.809Z,14.40
2023-04-18T15:31:44.992Z,14.00
2023-04-18T15:34:13.490Z,15.20
2023-04-18T15:36:41.655Z,14.00
2023-04-18T15:39:10.956Z,13.70
2023-04-18T15:41:39.203Z,14.30
2023-04-18T15:44:11.006Z,13.70
2023-04-18T15:46:39.055Z,15.30
2023-04-18T15:49:07.141Z,14.60
2023-04-18T15:51:35.069Z,13.70
2023-04-18T15:54:02.976Z,13.60
2023-04-18T15:56:33.720Z,13.60
2023-04-18T15:59:03.030Z,13.60
2023-04-18T16:01:32.205Z,13.60
2023-04-18T16:04:00.273Z,14.40
2023-04-18T16:06:28.297Z,13.50
2023-04-18T16:08:56.217Z,13.40
2023-04-18T16:11:26.036Z,13.80
2023-04-18T16:13:55.913Z,13.20
2023-04-18T16:16:23.859Z,13.30
2023-04-18T16:18:51.783Z,13.30
2023-04-18T16:21:19.647Z,13.30
2023-04-18T16:23:48.021Z,13.40
2023-04-18T16:26:15.977Z,13.30
2023-04-18T16:28:43.877Z,13.70
2023-04-18T16:31:15.620Z,13.90
2023-04-18T16:33:44.954Z,13.10
2023-04-18T16:36:12.920Z,13.20
2023-04-18T16:38:40.884Z,13.10
2023-04-18T16:41:08.767Z,13.10
2023-04-18T16:43:37.858Z,14.20
2023-04-18T16:46:06.383Z,13.10
2023-04-18T16:48:38.600Z,13.10
2023-04-18T16:51:06.795Z,13.00
2023-04-18T16:53:34.704Z,13.70
2023-04-18T16:56:03.209Z,14.00
2023-04-18T16:58:31.313Z,13.20
2023-04-18T17:00:59.175Z,13.40
2023-04-18T17:03:27.140Z,13.40
2023-04-18T17:05:56.681Z,12.70
2023-04-18T17:08:25.805Z,14.10
2023-04-18T17:10:53.652Z,12.70
2023-04-18T17:13:22.358Z,14.20
2023-04-18T17:15:50.265Z,12.70
2023-04-18T17:18:18.132Z,12.70
2023-04-18T17:20:46.020Z,13.20
2023-04-18T17:23:15.344Z,12.70
2023-04-18T17:25:43.260Z,12.70
2023-04-18T17:28:11.724Z,12.60
2023-04-18T17:30:41.299Z,12.50
2023-04-18T17:33:09.317Z,13.10
2023-04-18T17:35:37.348Z,12.50
2023-04-18T17:38:05.247Z,12.60
2023-04-18T17:40:35.271Z,12.50
2023-04-18T17:43:03.172Z,12.30
2023-04-18T17:45:31.003Z,13.70
2023-04-18T17:48:02.064Z,12.30
2023-04-18T17:50:30.125Z,13.50
2023-04-18T17:52:58.407Z,12.20
2023-04-18T17:55:27.066Z,12.20
2023-04-18T17:57:56.279Z,12.10
2023-04-18T18:00:24.470Z,12.10
2023-04-18T18:02:52.455Z,12.00
2023-04-18T18:05:20.645Z,12.00
2023-04-18T18:07:49.390Z,11.90
2023-04-18T18:10:19.973Z,11.90
2023-04-18T18:12:48.421Z,11.90
2023-04-18T18:15:17.706Z,11.90
2023-04-18T18:17:45.620Z,11.90
2023-04-18T18:20:14.504Z,11.90
2023-04-18T18:22:42.454Z,11.90
2023-04-18T18:25:11.184Z,11.90
2023-04-18T18:27:39.173Z,11.80
2023-04-18T18:30:08.882Z,11.80
2023-04-18T18:32:38.207Z,11.80
2023-04-18T18:35:07.295Z,11.80
2023-04-18T18:37:35.196Z,11.80
2023-04-18T18:40:06.599Z,11.80
2023-04-18T18:42:34.478Z,11.70
2023-04-18T18:45:02.523Z,11.90
2023-04-18T18:47:30.791Z,11.70
2023-04-18T18:50:00.234Z,11.70
2023-04-18T18:52:29.714Z,11.70
2023-04-18T18:54:57.966Z,11.70
2023-04-18T18:57:26.086Z,11.60
2023-04-18T18:59:56.277Z,11.60
2023-04-18T19:02:24.439Z,11.60
2023-04-18T19:04:52.670Z,11.60
2023-04-18T19:07:22.092Z,11.60
2023-04-18T19:09:49.936Z,11.60
2023-04-18T19:12:17.901Z,11.50
2023-04-18T19:14:46.787Z,11.70
2023-04-18T19:17:17.525Z,11.60
2023-04-18T19:19:45.362Z,11.50
2023-04-18T19:22:13.250Z,11.50
2023-04-18T19:24:42.488Z,11.50
2023-04-18T19:27:10.366Z,11.50
2023-04-18T19:29:38.276Z,11.50
2023-04-18T19:32:07.305Z,11.50
2023-04-18T19:34:35.288Z,11.40
2023-04-18T19:37:03.600Z,11.80
2023-04-18T19:39:31.484Z,11.40
2023-04-18T19:42:01.809Z,11.40
2023-04-18T19:44:31.096Z,11.40
2023-04-18T19:46:59.013Z,11.40
2023-04-18T19:49:26.888Z,11.30
2023-04-18T19:51:54.781Z,11.30
2023-04-18T19:54:22.692Z,11.60
2023-04-18T19:56:51.275Z,13.20
2023-04-18T19:59:20.579Z,11.20
2023-04-18T20:01:48.451Z,11.20
2023-04-18T20:04:16.506Z,11.20
2023-04-18T20:06:44.568Z,11.10
2023-04-18T20:09:16.729Z,11.10
2023-04-18T20:11:46.437Z,11.10
2023-04-18T20:14:14.294Z,11.10
2023-04-18T20:16:45.682Z,11.00
2023-04-18T20:19:13.986Z,11.00
2023-04-18T20:21:42.235Z,10.90
2023-04-18T20:24:10.616Z,10.90
2023-04-18T20:26:38.531Z,10.90
2023-04-18T20:29:06.393Z,10.80
2023-04-18T20:31:34.977Z,10.70
2023-04-18T20:34:04.207Z,10.70
2023-04-18T20:36:34.311Z,10.70
2023-04-18T20:39:03.331Z,11.70
2023-04-18T20:41:32.372Z,12.10
2023-04-18T20:44:00.271Z,10.50
2023-04-18T20:46:28.151Z,10.80
2023-04-18T20:48:55.985Z,10.60
2023-04-18T20:51:25.279Z,10.50
2023-04-18T20:53:53.156Z,11.50
2023-04-18T20:56:21.101Z,10.50
2023-04-18T20:58:48.963Z,11.50
2023-04-18T21:01:16.846Z,11.30
2023-04-18T21:03:45.017Z,10.40
2023-04-18T21:06:13.085Z,10.40
2023-04-18T21:08:42.445Z,10.40
2023-04-18T21:11:10.495Z,10.40
2023-04-18T21:13:38.367Z,12.30
2023-04-18T21:16:07.904Z,10.20
2023-04-18T21:18:35.852Z,10.20
2023-04-18T21:21:03.756Z,10.10
2023-04-18T21:23:31.595Z,10.00
2023-04-18T21:26:00.820Z,10.00
2023-04-18T21:28:28.662Z,10.00
2023-04-18T21:30:56.541Z,9.90
2023-04-18T21:33:24.515Z,9.80
2023-04-18T21:35:52.387Z,9.80
2023-04-18T21:38:25.178Z,9.70
2023-04-18T21:40:53.051Z,10.50
2023-04-18T21:43:22.386Z,10.60
2023-04-18T21:45:50.303Z,9.60
2023-04-18T21:48:18.203Z,9.50
2023-04-18T21:50:46.070Z,9.50
2023-04-18T21:53:13.934Z,9.40
2023-04-18T21:55:41.811Z,9.40
2023-04-18T21:58:09.670Z,9.40
2023-04-18T22:00:38.892Z,11.40
2023-04-18T22:03:06.927Z,10.90
2023-04-18T22:05:34.826Z,11.30
2023-04-18T22:08:03.379Z,9.20
2023-04-18T22:10:31.245Z,9.10
2023-04-18T22:13:00.117Z,9.10
2023-04-18T22:15:28.012Z,10.10
2023-04-18T22:17:58.948Z,8.90
2023-04-18T22:20:27.376Z,8.90
2023-04-18T22:22:55.687Z,8.80
2023-04-18T22:25:23.697Z,8.80
2023-04-18T22:27:51.568Z,10.40
2023-04-18T22:30:19.403Z,10.10
2023-04-18T22:32:47.354Z,8.70
2023-04-18T22:35:16.916Z,8.60
2023-04-18T22:37:44.739Z,8.60
2023-04-18T22:40:13.546Z,8.60
2023-04-18T22:42:41.408Z,8.60
2023-04-18T22:45:10.671Z,8.60
2023-04-18T22:47:38.644Z,8.60
2023-04-18T22:50:07.842Z,8.60
2023-04-18T22:52:37.114Z,8.70
2023-04-18T22:55:05.526Z,8.70
2023-04-18T22:57:33.486Z,8.70
2023-04-18T23:00:01.378Z,8.70
2023-04-18T23:02:29.345Z,8.60
2023-04-18T23:04:59.709Z,8.60
2023-04-18T23:07:27.589Z,9.00
2023-04-18T23:09:56.881Z,8.70
2023-04-18T23:12:24.992Z,8.70
2023-04-18T23:14:52.832Z,8.70
2023-04-18T23:17:20.715Z,10.70
2023-04-18T23:19:48.604Z,8.70
2023-04-18T23:22:16.492Z,8.70
2023-04-18T23:24:44.392Z,9.60
2023-04-18T23:27:13.657Z,10.60
2023-04-18T23:29:41.589Z,9.30
2023-04-18T23:32:09.485Z,9.80
2023-04-18T23:34:37.505Z,8.70
2023-04-18T23:37:05.456Z,8.60
2023-04-18T23:39:33.371Z,8.60
2023-04-18T23:42:01.217Z,9.40
2023-04-18T23:44:31.600Z,8.60
2023-04-18T23:46:59.639Z,8.60
2023-04-18T23:49:28.130Z,8.60
2023-04-18T23:51:56.010Z,8.60
2023-04-18T23:54:23.900Z,8.60
2023-04-18T23:56:51.820Z,8.60
2023-04-18T23:59:20.181Z,8.50
